Estación Meteorológica Peña el Pijo (Robertgarden) [ 11/20/18 01:43:18 CET ]

Fecha Hora Presion(HPa) Temp (°C) Humedad % Rocio (°C) Viento ( m/s) Direccion Lluvia 1Hora(mm) Lluvia 24H(mm) LLuvia Total(mm)
2018-Jan-13 01:01:33 1010.500 1.1 62 -5.4         36.26
2018-Jan-13 02:06:10 1009.700 -1.0 67 -6.4         36.26
2018-Jan-13 03:01:38 1009.200 -1.8 70 -6.5         36.26
2018-Jan-13 04:01:57 1009.100 -2.2 71 -6.7         36.26
2018-Jan-13 05:01:47 1008.400 -2.2 71 -6.7         36.26
2018-Jan-13 06:01:40 1007.900 -1.9 71 -6.4         36.26
2018-Jan-13 07:01:42 1007.500 -1.4 70 -6.2         36.26
2018-Jan-13 08:01:35 1007.600 -1.2 71 -5.8         36.26
2018-Jan-13 09:01:55 1007.500 -0.9 72 -5.3         36.26
2018-Jan-13 10:02:04 1007.600 0.9 71 -3.8         36.26
2018-Jan-13 11:01:46 1007.600 3.3 64 -2.9         36.26
2018-Jan-13 12:01:48 1006.900 6.9 55 -1.6         36.26
2018-Jan-13 13:01:46 1005.900 7.1 52 -2.1         36.26
2018-Jan-13 14:01:32 1005.300 7.5 46 -3.4         36.26
2018-Jan-13 15:01:48 1004.800 10.6 41 -2.1         36.26
2018-Jan-13 16:01:47 1005.400 10.5 32 -5.6         36.26
2018-Jan-13 17:01:26 1006.100 7.2 51 -2.3 2.9 WNW     36.26
2018-Jan-13 18:01:43 1006.000 5.6 62 -1.1         36.26
2018-Jan-13 19:01:49 1005.500 5.5 68 0.1         36.26
2018-Jan-13 20:01:38 1006.000 5.5 72 0.9         36.26
2018-Jan-13 21:01:43 1005.900 5.4 70 0.4 0.5 NW     36.26
2018-Jan-13 22:01:44 1006.200 4.8 72 0.2         36.26
2018-Jan-13 23:02:05 1006.200 4.6 68 -0.8         36.26

Temperatura Máxima:10°    Temperatura Mínima:-2°
Presión Máxima:1010.500 Hpa    Presión Mínima:1004.800 Hpa


Volver